Time;durP1;ratioP1;P1;durP2;ratioP2;P2;SDS_P1;SDS_P2;PMS_P1;PMS_P2;Temp;Humidity;BMP_temperature;BMP_pressure;BME280_temperature;BME280_humidity;BME280_pressure;Samples;Min_cycle;Max_cycle;Signal;HPM_P1;HPM_P2
2023/07/10 00:01:17;;;;;;;9.63;5.25;;;;;;;;;;6088335;23;20030;-60
2023/07/10 00:03:44;;;;;;;;;;;;;;;;;;6086908;23;20034;-60
2023/07/10 00:06:12;;;;;;;11.32;6.53;;;;;;;;;;6086548;23;19928;-62
2023/07/10 00:08:46;;;;;;;8.75;5.38;;;;;;;;;;6088859;23;20390;-56
2023/07/10 00:11:15;;;;;;;8.20;5.68;;;;;;;;;;6086224;23;20022;-53
2023/07/10 00:13:49;;;;;;;8.43;6.22;;;;;;;;;;6088708;23;20061;-49
2023/07/10 00:16:21;;;;;;;7.88;5.90;;;;;;;;;;6088051;23;20033;-51
2023/07/10 00:18:49;;;;;;;10.60;5.57;;;;;;;;;;6085411;23;20065;-52
2023/07/10 00:21:22;;;;;;;11.38;5.97;;;;;;;;;;6088780;23;20489;-49
2023/07/10 00:23:49;;;;;;;12.27;6.75;;;;;;;;;;6086509;23;20450;-51
2023/07/10 00:26:25;;;;;;;10.10;5.95;;;;;;;;;;6087923;23;20026;-59
2023/07/10 00:28:53;;;;;;;11.55;6.40;;;;;;;;;;6087398;23;20498;-60
2023/07/10 00:31:27;;;;;;;8.93;6.40;;;;;;;;;;6088901;23;20030;-60
2023/07/10 00:33:54;;;;;;;10.55;6.32;;;;;;;;;;6087136;23;20050;-59
2023/07/10 00:36:24;;;;;;;9.70;6.47;;;;;;;;;;6088510;23;20033;-51
2023/07/10 00:39:33;;;;;;;7.20;5.53;;;;;;;;;;6087208;23;20034;-59
2023/07/10 00:42:02;;;;;;;7.97;6.32;;;;;;;;;;6025251;23;20083;-60
2023/07/10 00:44:39;;;;;;;10.70;6.50;;;;;;;;;;6079850;23;20023;-60
2023/07/10 00:47:15;;;;;;;11.43;6.85;;;;;;;;;;6087361;23;20503;-59
2023/07/10 00:50:09;;;;;;;10.10;7.38;;;;;;;;;;6086875;23;20029;-60
2023/07/10 00:52:39;;;;;;;12.82;6.57;;;;;;;;;;6088359;23;20027;-54
2023/07/10 00:55:26;;;;;;;10.73;6.70;;;;;;;;;;6086390;23;20034;-54
2023/07/10 00:57:58;;;;;;;13.40;6.50;;;;;;;;;;6090629;23;20029;-55
2023/07/10 01:00:59;;;;;;;13.52;7.40;;;;;;;;;;6088576;23;20023;-51
2023/07/10 01:03:26;;;;;;;8.43;5.90;;;;;;;;;;6089268;23;20381;-59
2023/07/10 01:06:03;;;;;;;10.25;7.13;;;;;;;;;;6088892;23;20564;-62
2023/07/10 01:08:32;;;;;;;9.25;6.40;;;;;;;;;;6089508;23;20031;-63
2023/07/10 01:10:59;;;;;;;9.45;6.35;;;;;;;;;;6088327;23;20078;-62
2023/07/10 01:13:33;;;;;;;8.73;6.40;;;;;;;;;;6083205;23;20081;-62
2023/07/10 01:16:01;;;;;;;8.35;6.80;;;;;;;;;;6089230;23;20073;-62
2023/07/10 01:18:36;;;;;;;8.75;7.20;;;;;;;;;;6087898;23;20026;-62
2023/07/10 01:21:23;;;;;;;11.85;7.03;;;;;;;;;;6090693;23;20023;-50
2023/07/10 01:23:58;;;;;;;12.77;7.35;;;;;;;;;;6088899;23;20030;-54
2023/07/10 01:26:26;;;;;;;8.25;7.05;;;;;;;;;;6089544;23;20379;-52
2023/07/10 01:28:53;;;;;;;;;;;;;;;;;;6089277;23;20097;-51
2023/07/10 01:31:28;;;;;;;9.23;6.60;;;;;;;;;;6086306;23;20357;-59
2023/07/10 01:33:57;;;;;;;8.90;6.75;;;;;;;;;;6089403;23;20025;-52
2023/07/10 01:36:35;;;;;;;12.25;6.75;;;;;;;;;;6089227;23;20034;-59
2023/07/10 01:39:06;;;;;;;9.30;7.00;;;;;;;;;;6088319;23;20022;-58
2023/07/10 01:41:41;;;;;;;11.77;6.18;;;;;;;;;;6086798;23;20026;-59
2023/07/10 01:44:29;;;;;;;8.60;6.15;;;;;;;;;;6089609;23;20022;-59
2023/07/10 01:47:03;;;;;;;11.82;6.25;;;;;;;;;;6088392;23;20062;-59
2023/07/10 01:49:34;;;;;;;8.65;5.97;;;;;;;;;;6089924;23;20022;-51
2023/07/10 01:52:03;;;;;;;11.43;6.00;;;;;;;;;;6089044;23;20030;-53
2023/07/10 01:54:43;;;;;;;8.93;6.80;;;;;;;;;;6087747;23;20026;-49
2023/07/10 01:57:11;;;;;;;9.60;6.82;;;;;;;;;;6088735;23;20429;-49
2023/07/10 01:59:45;;;;;;;9.60;6.60;;;;;;;;;;6087096;23;20027;-62
2023/07/10 02:02:12;;;;;;;8.07;6.13;;;;;;;;;;6089186;23;20026;-59
2023/07/10 02:04:40;;;;;;;6.85;6.10;;;;;;;;;;6088552;23;20087;-63
2023/07/10 02:07:13;;;;;;;7.55;5.95;;;;;;;;;;6088479;23;20223;-63
2023/07/10 02:09:40;;;;;;;7.88;5.45;;;;;;;;;;6088362;23;20045;-62
2023/07/10 02:12:14;;;;;;;8.68;6.00;;;;;;;;;;6089077;23;20426;-63
2023/07/10 02:14:41;;;;;;;14.02;5.43;;;;;;;;;;6088702;23;20456;-62
2023/07/10 02:17:08;;;;;;;7.25;5.10;;;;;;;;;;6088645;23;20441;-62
2023/07/10 02:19:42;;;;;;;11.70;5.40;;;;;;;;;;6090394;23;20038;-59
2023/07/10 02:22:09;;;;;;;7.45;5.82;;;;;;;;;;6087268;23;20509;-60
2023/07/10 02:24:37;;;;;;;6.78;5.82;;;;;;;;;;6088886;23;20027;-59
2023/07/10 02:27:10;;;;;;;11.80;6.05;;;;;;;;;;6088801;23;20085;-60
2023/07/10 02:29:37;;;;;;;8.48;5.70;;;;;;;;;;6111927;23;20085;-53
2023/07/10 02:32:11;;;;;;;11.50;5.80;;;;;;;;;;6088363;23;20081;-54
2023/07/10 02:34:38;;;;;;;6.90;5.90;;;;;;;;;;6082800;23;20440;-54
2023/07/10 02:37:05;;;;;;;11.38;5.78;;;;;;;;;;6088274;23;20026;-56
2023/07/10 02:39:39;;;;;;;7.20;6.05;;;;;;;;;;6087500;23;20030;-52
2023/07/10 02:42:06;;;;;;;11.60;6.07;;;;;;;;;;6088092;23;20023;-51
2023/07/10 02:44:40;;;;;;;12.60;6.50;;;;;;;;;;6088216;23;20085;-55
2023/07/10 02:47:08;;;;;;;8.15;6.28;;;;;;;;;;6088954;23;20026;-55
2023/07/10 02:49:35;;;;;;;9.48;6.50;;;;;;;;;;6088062;23;20089;-56
2023/07/10 02:52:09;;;;;;;7.95;6.32;;;;;;;;;;6088940;23;20018;-51
2023/07/10 02:54:43;;;;;;;8.50;6.40;;;;;;;;;;6087228;23;20030;-54
2023/07/10 02:57:16;;;;;;;8.18;6.30;;;;;;;;;;6088758;23;20030;-60
2023/07/10 02:59:50;;;;;;;7.13;5.88;;;;;;;;;;6086757;23;20030;-57
2023/07/10 03:02:24;;;;;;;7.22;5.85;;;;;;;;;;6088551;23;20023;-58
2023/07/10 03:04:51;;;;;;;8.80;5.78;;;;;;;;;;6085806;23;20026;-59
2023/07/10 03:07:25;;;;;;;11.20;5.78;;;;;;;;;;6089100;23;20418;-59
2023/07/10 03:09:52;;;;;;;5.78;5.10;;;;;;;;;;6087283;23;20026;-60
2023/07/10 03:12:21;;;;;;;8.05;4.97;;;;;;;;;;6087433;23;20026;-60
2023/07/10 03:14:55;;;;;;;6.40;5.70;;;;;;;;;;6087726;23;20057;-57
2023/07/10 03:17:22;;;;;;;6.82;5.78;;;;;;;;;;6088084;23;20027;-60
2023/07/10 03:19:56;;;;;;;6.28;5.03;;;;;;;;;;6087405;23;20065;-59
2023/07/10 03:22:23;;;;;;;7.35;5.38;;;;;;;;;;6086036;23;20081;-60
2023/07/10 03:24:57;;;;;;;7.78;5.13;;;;;;;;;;6088322;23;20081;-59
2023/07/10 03:27:27;;;;;;;8.15;5.90;;;;;;;;;;6089428;23;20018;-52
2023/07/10 03:30:01;;;;;;;11.52;5.68;;;;;;;;;;6087247;23;20022;-51
2023/07/10 03:32:42;;;;;;;8.18;5.30;;;;;;;;;;6087995;23;20058;-50
2023/07/10 03:35:09;;;;;;;8.25;5.20;;;;;;;;;;6087762;23;20027;-51
2023/07/10 03:37:43;;;;;;;6.30;5.25;;;;;;;;;;6087987;23;20027;-50
2023/07/10 03:40:10;;;;;;;8.32;4.57;;;;;;;;;;6087449;23;20086;-49
2023/07/10 03:42:37;;;;;;;7.53;4.60;;;;;;;;;;6088825;23;20077;-51
2023/07/10 03:45:11;;;;;;;6.90;4.65;;;;;;;;;;6087599;23;20097;-59
2023/07/10 03:47:38;;;;;;;5.53;4.18;;;;;;;;;;6086869;23;20108;-60
2023/07/10 03:50:13;;;;;;;8.63;4.80;;;;;;;;;;6088077;23;20026;-60
2023/07/10 03:52:40;;;;;;;7.40;4.63;;;;;;;;;;6088104;23;20022;-60
2023/07/10 03:55:07;;;;;;;6.88;4.63;;;;;;;;;;6086701;23;20030;-52
2023/07/10 03:57:41;;;;;;;6.05;4.95;;;;;;;;;;6088235;23;20030;-60
2023/07/10 04:00:08;;;;;;;12.18;5.22;;;;;;;;;;6087186;23;20034;-60
2023/07/10 04:02:42;;;;;;;6.95;5.20;;;;;;;;;;6086827;23;20029;-60
2023/07/10 04:05:09;;;;;;;8.30;5.75;;;;;;;;;;6085980;23;20037;-60
2023/07/10 04:07:37;;;;;;;6.10;4.50;;;;;;;;;;6087036;23;20497;-60
2023/07/10 04:10:10;;;;;;;5.63;3.90;;;;;;;;;;6086917;23;20577;-59
2023/07/10 04:12:40;;;;;;;6.68;4.30;;;;;;;;;;6088021;23;20089;-51
2023/07/10 04:15:14;;;;;;;8.10;4.88;;;;;;;;;;6087325;23;20088;-54
2023/07/10 04:17:41;;;;;;;8.15;4.78;;;;;;;;;;6087856;23;20074;-48
2023/07/10 04:20:09;;;;;;;5.30;4.53;;;;;;;;;;6087077;23;20034;-48
2023/07/10 04:22:43;;;;;;;6.95;4.63;;;;;;;;;;6088037;23;20378;-60
2023/07/10 04:25:10;;;;;;;5.40;4.70;;;;;;;;;;6088007;23;20030;-52
2023/07/10 04:27:44;;;;;;;6.32;4.40;;;;;;;;;;6088208;23;20025;-49
2023/07/10 04:30:12;;;;;;;5.78;4.50;;;;;;;;;;6087537;23;20665;-53
2023/07/10 04:32:46;;;;;;;7.40;4.32;;;;;;;;;;6087921;23;20026;-51
2023/07/10 04:35:13;;;;;;;5.55;4.68;;;;;;;;;;6086363;23;20030;-51
2023/07/10 04:37:40;;;;;;;8.32;4.88;;;;;;;;;;6086191;23;20026;-52
2023/07/10 04:40:15;;;;;;;6.20;4.80;;;;;;;;;;6088670;23;20359;-61
2023/07/10 04:42:42;;;;;;;6.00;4.78;;;;;;;;;;6086301;23;20093;-60
2023/07/10 04:45:16;;;;;;;9.10;5.30;;;;;;;;;;6087380;23;20078;-60
2023/07/10 04:47:43;;;;;;;7.28;5.07;;;;;;;;;;6087431;23;20079;-60
2023/07/10 04:50:11;;;;;;;8.50;5.35;;;;;;;;;;6087449;23;20026;-60
2023/07/10 04:52:45;;;;;;;10.25;5.35;;;;;;;;;;6087061;23;20022;-50
2023/07/10 04:55:19;;;;;;;7.05;4.93;;;;;;;;;;6084916;23;20057;-53
2023/07/10 04:57:53;;;;;;;8.30;4.80;;;;;;;;;;6088129;23;20414;-50
2023/07/10 05:00:20;;;;;;;12.13;4.53;;;;;;;;;;6086771;23;20030;-52
2023/07/10 05:02:47;;;;;;;7.10;4.95;;;;;;;;;;6087358;23;20026;-50
2023/07/10 05:05:21;;;;;;;7.50;4.68;;;;;;;;;;6086997;23;20097;-51
2023/07/10 05:07:48;;;;;;;6.45;5.15;;;;;;;;;;6086813;23;20027;-48
2023/07/10 05:10:22;;;;;;;5.50;4.90;;;;;;;;;;6085799;23;20482;-60
2023/07/10 05:12:50;;;;;;;7.30;5.15;;;;;;;;;;6087405;23;20030;-60
2023/07/10 05:15:17;;;;;;;5.13;4.63;;;;;;;;;;6085652;23;20081;-59
2023/07/10 05:17:51;;;;;;;7.45;5.15;;;;;;;;;;6088448;23;20030;-60
2023/07/10 05:20:18;;;;;;;7.35;4.80;;;;;;;;;;6086387;23;20382;-54
2023/07/10 05:22:52;;;;;;;7.20;4.57;;;;;;;;;;6088276;23;20026;-59
2023/07/10 05:25:19;;;;;;;6.78;4.70;;;;;;;;;;6086429;23;20030;-60
2023/07/10 05:27:47;;;;;;;11.43;5.72;;;;;;;;;;6087939;23;20026;-60
2023/07/10 05:30:20;;;;;;;6.28;5.28;;;;;;;;;;6088037;23;20027;-59
2023/07/10 05:32:47;;;;;;;6.63;4.68;;;;;;;;;;6086394;23;20256;-59
2023/07/10 05:35:21;;;;;;;5.30;4.60;;;;;;;;;;6086090;23;20486;-60
2023/07/10 05:37:49;;;;;;;9.77;5.20;;;;;;;;;;6085569;23;20553;-60
2023/07/10 05:40:16;;;;;;;9.88;6.00;;;;;;;;;;6089090;23;20038;-60
2023/07/10 05:42:50;;;;;;;8.45;5.45;;;;;;;;;;6088315;23;20022;-59
2023/07/10 05:45:18;;;;;;;7.00;5.28;;;;;;;;;;6087481;23;20090;-60
2023/07/10 05:47:45;;;;;;;6.68;4.80;;;;;;;;;;6087955;23;20023;-58
2023/07/10 05:50:18;;;;;;;7.68;4.80;;;;;;;;;;6086540;23;20034;-59
2023/07/10 05:52:45;;;;;;;5.15;4.65;;;;;;;;;;6089578;23;20925;-64
2023/07/10 05:55:32;;;;;;;5.15;4.40;;;;;;;;;;6109337;23;20026;-64
2023/07/10 05:58:07;;;;;;;5.63;4.45;;;;;;;;;;6089386;23;20068;-64
2023/07/10 06:00:42;;;;;;;4.80;4.20;;;;;;;;;;6088111;23;20030;-64
2023/07/10 06:03:11;;;;;;;4.95;4.40;;;;;;;;;;6089220;23;20029;-62
2023/07/10 06:05:38;;;;;;;5.95;4.55;;;;;;;;;;6088562;23;20026;-54
2023/07/10 06:08:11;;;;;;;5.45;4.57;;;;;;;;;;6089942;23;20081;-50
2023/07/10 06:10:38;;;;;;;7.22;4.75;;;;;;;;;;6089142;23;20418;-51
2023/07/10 06:13:05;;;;;;;6.70;5.10;;;;;;;;;;6089434;23;20085;-52
2023/07/10 06:15:43;;;;;;;7.03;4.90;;;;;;;;;;6087890;23;20466;-56
2023/07/10 06:18:10;;;;;;;5.47;4.70;;;;;;;;;;6088782;23;20050;-53
2023/07/10 06:20:44;;;;;;;5.05;4.20;;;;;;;;;;6087835;23;20026;-60
2023/07/10 06:23:11;;;;;;;5.90;4.57;;;;;;;;;;6089012;23;20613;-58
2023/07/10 06:25:43;;;;;;;5.88;4.50;;;;;;;;;;6090289;23;20622;-59
2023/07/10 06:28:17;;;;;;;7.15;4.88;;;;;;;;;;6090010;23;20073;-59
2023/07/10 06:30:46;;;;;;;6.45;4.40;;;;;;;;;;6083393;23;20049;-60
2023/07/10 06:33:20;;;;;;;5.20;3.78;;;;;;;;;;6088195;23;20524;-60
2023/07/10 06:35:48;;;;;;;6.32;4.00;;;;;;;;;;6085348;23;20022;-61
2023/07/10 06:38:15;;;;;;;9.00;4.45;;;;;;;;;;6088711;23;20505;-61
2023/07/10 06:40:49;;;;;;;6.28;4.63;;;;;;;;;;6087098;23;20085;-61
2023/07/10 06:43:17;;;;;;;4.60;4.03;;;;;;;;;;6088768;23;20018;-61
2023/07/10 06:45:51;;;;;;;6.43;4.03;;;;;;;;;;6088218;23;20444;-61
2023/07/10 06:48:19;;;;;;;5.10;3.92;;;;;;;;;;6086239;23;20478;-54
2023/07/10 06:50:49;;;;;;;7.35;4.22;;;;;;;;;;6088152;23;20434;-55
2023/07/10 06:53:23;;;;;;;7.75;4.30;;;;;;;;;;6086509;23;20028;-56
2023/07/10 06:56:01;;;;;;;4.57;3.95;;;;;;;;;;6087174;23;20058;-56
2023/07/10 06:58:36;;;;;;;5.90;4.00;;;;;;;;;;6086766;23;20089;-56
2023/07/10 07:01:04;;;;;;;6.25;4.20;;;;;;;;;;6089081;23;20057;-55
2023/07/10 07:03:31;;;;;;;4.55;3.90;;;;;;;;;;6089040;23;20034;-58
2023/07/10 07:06:06;;;;;;;5.43;4.00;;;;;;;;;;6086611;23;20486;-56
2023/07/10 07:08:34;;;;;;;6.68;4.18;;;;;;;;;;6088765;23;20051;-57
2023/07/10 07:11:08;;;;;;;6.35;4.38;;;;;;;;;;6083958;23;20498;-59
2023/07/10 07:13:35;;;;;;;4.70;3.92;;;;;;;;;;6089223;23;20022;-60
2023/07/10 07:16:04;;;;;;;5.78;4.00;;;;;;;;;;6085906;23;20066;-59
2023/07/10 07:18:37;;;;;;;5.47;3.80;;;;;;;;;;6087085;23;20022;-60
2023/07/10 07:21:05;;;;;;;4.25;3.85;;;;;;;;;;6086153;23;20026;-60
2023/07/10 07:23:38;;;;;;;5.95;4.10;;;;;;;;;;6089010;23;20061;-59
2023/07/10 07:26:05;;;;;;;4.20;3.53;;;;;;;;;;6087418;23;20026;-60
2023/07/10 07:28:33;;;;;;;;;;;;;;;;;;6086579;23;20396;-58
2023/07/10 07:31:07;;;;;;;4.97;4.00;;;;;;;;;;6087096;23;19921;-58
2023/07/10 07:33:34;;;;;;;6.55;4.22;;;;;;;;;;6087667;23;20029;-57
2023/07/10 07:36:04;;;;;;;4.90;3.58;;;;;;;;;;6087127;23;20085;-56
2023/07/10 07:38:37;;;;;;;5.07;3.50;;;;;;;;;;6088899;23;20022;-58
2023/07/10 07:41:06;;;;;;;8.77;3.88;;;;;;;;;;6110670;23;20026;-59
2023/07/10 07:43:40;;;;;;;5.25;3.55;;;;;;;;;;6087835;23;20041;-58
2023/07/10 07:46:07;;;;;;;4.63;3.53;;;;;;;;;;6087698;23;20078;-63
2023/07/10 07:48:35;;;;;;;;;;;;;;;;;;6082180;23;20018;-63
2023/07/10 07:51:08;;;;;;;5.07;3.40;;;;;;;;;;6087684;23;19924;-64
2023/07/10 07:53:36;;;;;;;3.47;2.90;;;;;;;;;;6089033;23;20134;-63
2023/07/10 07:56:17;;;;;;;4.82;2.90;;;;;;;;;;6059649;23;20082;-62
2023/07/10 07:58:44;;;;;;;3.38;2.85;;;;;;;;;;6054312;23;20026;-64
2023/07/10 08:01:18;;;;;;;4.82;3.10;;;;;;;;;;6059259;23;20023;-63
2023/07/10 08:03:45;;;;;;;4.03;2.67;;;;;;;;;;6058478;23;20031;-62
2023/07/10 08:06:13;;;;;;;4.50;2.20;;;;;;;;;;6056468;23;20038;-63
2023/07/10 08:08:46;;;;;;;3.40;2.05;;;;;;;;;;6059613;23;20090;-63
2023/07/10 08:11:15;;;;;;;3.33;2.13;;;;;;;;;;6057019;23;20034;-58
2023/07/10 08:13:50;;;;;;;2.72;2.03;;;;;;;;;;6060556;23;20018;-54
2023/07/10 08:16:17;;;;;;;;;;;;;;;;;;6055764;23;20494;-51
2023/07/10 08:18:44;;;;;;;3.35;2.47;;;;;;;;;;6055846;23;19921;-55
2023/07/10 08:21:18;;;;;;;3.63;2.20;;;;;;;;;;6054558;23;20030;-54
2023/07/10 08:23:45;;;;;;;2.55;2.03;;;;;;;;;;6057431;23;20046;-56
2023/07/10 08:26:19;;;;;;;4.40;2.13;;;;;;;;;;6057752;23;20034;-54
2023/07/10 08:28:46;;;;;;;4.47;1.90;;;;;;;;;;6052604;23;20058;-56
2023/07/10 08:31:13;;;;;;;4.60;2.45;;;;;;;;;;6055161;23;20393;-57
2023/07/10 08:33:47;;;;;;;19.85;3.40;;;;;;;;;;6057334;23;20477;-56
2023/07/10 08:36:15;;;;;;;4.47;2.38;;;;;;;;;;6059270;23;20082;-58
2023/07/10 08:38:48;;;;;;;3.50;2.30;;;;;;;;;;6056509;23;20569;-58
2023/07/10 08:41:27;;;;;;;5.85;2.10;;;;;;;;;;6055494;23;20427;-53
2023/07/10 08:44:01;;;;;;;4.55;2.13;;;;;;;;;;6059082;23;20035;-52
2023/07/10 08:46:28;;;;;;;3.45;2.03;;;;;;;;;;6056432;23;20089;-53
2023/07/10 08:49:05;;;;;;;3.00;1.90;;;;;;;;;;6055708;23;20557;-53
2023/07/10 08:52:02;;;;;;;2.42;1.85;;;;;;;;;;6058009;23;20031;-54
2023/07/10 08:54:51;;;;;;;2.03;1.83;;;;;;;;;;6050503;23;20034;-53
2023/07/10 08:57:29;;;;;;;2.75;2.08;;;;;;;;;;6086045;23;20340;-64
2023/07/10 09:00:06;;;;;;;3.90;1.88;;;;;;;;;;6084967;23;20023;-64
2023/07/10 09:02:42;;;;;;;3.15;2.03;;;;;;;;;;6086362;23;20034;-64
2023/07/10 09:05:13;;;;;;;5.93;2.10;;;;;;;;;;6086474;23;20513;-64
2023/07/10 09:07:48;;;;;;;2.25;1.70;;;;;;;;;;6084819;23;20383;-60
2023/07/10 09:10:21;;;;;;;6.93;2.22;;;;;;;;;;6087057;23;20023;-57
2023/07/10 09:12:57;;;;;;;2.63;2.08;;;;;;;;;;6088737;23;20101;-57
2023/07/10 09:15:34;;;;;;;3.22;1.80;;;;;;;;;;6087648;23;20023;-58
2023/07/10 09:18:19;;;;;;;3.35;2.25;;;;;;;;;;6087577;23;20474;-56
2023/07/10 09:20:49;;;;;;;2.58;2.10;;;;;;;;;;6089430;23;20022;-55
2023/07/10 09:23:25;;;;;;;3.77;2.10;;;;;;;;;;6087968;23;20618;-57
2023/07/10 09:25:56;;;;;;;3.15;2.20;;;;;;;;;;6087289;23;20266;-51
2023/07/10 09:28:32;;;;;;;5.90;2.35;;;;;;;;;;6088895;23;20030;-49
2023/07/10 09:31:04;;;;;;;5.03;2.45;;;;;;;;;;6089257;23;20022;-50
2023/07/10 09:33:37;;;;;;;3.28;2.45;;;;;;;;;;6085941;23;20117;-51
2023/07/10 09:36:05;;;;;;;;;;;;;;;;;;6088932;23;20026;-58
2023/07/10 09:38:32;;;;;;;3.63;2.75;;;;;;;;;;6088370;23;19925;-60
2023/07/10 09:41:10;;;;;;;5.35;2.88;;;;;;;;;;6088371;23;20026;-60
2023/07/10 09:43:39;;;;;;;4.43;2.75;;;;;;;;;;6088312;23;20077;-60
2023/07/10 09:46:14;;;;;;;5.78;2.95;;;;;;;;;;6086117;23;20434;-59
2023/07/10 09:48:41;;;;;;;9.43;2.55;;;;;;;;;;6086035;23;20026;-60
2023/07/10 09:51:08;;;;;;;;;;;;;;;;;;6088999;23;20124;-60
2023/07/10 09:53:46;;;;;;;3.10;2.70;;;;;;;;;;6090032;23;19993;-57
2023/07/10 09:56:22;;;;;;;4.95;3.10;;;;;;;;;;6086619;23;20077;-54
2023/07/10 09:58:57;;;;;;;5.47;2.47;;;;;;;;;;6089242;23;20026;-57
2023/07/10 10:01:32;;;;;;;3.83;2.42;;;;;;;;;;6087136;23;20034;-54
2023/07/10 10:04:05;;;;;;;3.60;2.55;;;;;;;;;;6086121;23;20061;-60
2023/07/10 10:06:41;;;;;;;3.28;2.20;;;;;;;;;;6087095;23;20568;-60
2023/07/10 10:09:15;;;;;;;3.95;2.38;;;;;;;;;;6084851;23;20413;-60
2023/07/10 10:11:52;;;;;;;4.88;2.70;;;;;;;;;;6084980;23;20552;-59
2023/07/10 10:14:23;;;;;;;3.03;2.20;;;;;;;;;;6087930;23;20102;-60
2023/07/10 10:16:59;;;;;;;2.83;2.45;;;;;;;;;;6087690;23;20026;-60
2023/07/10 10:19:31;;;;;;;3.83;2.40;;;;;;;;;;6089168;23;20085;-59
2023/07/10 10:22:04;;;;;;;;;;;;;;;;;;6086801;23;20023;-50
2023/07/10 10:24:32;;;;;;;2.95;2.40;;;;;;;;;;6086453;23;19925;-53
2023/07/10 10:27:23;;;;;;;3.55;2.53;;;;;;;;;;6087299;23;20026;-50
2023/07/10 10:30:07;;;;;;;2.90;2.60;;;;;;;;;;6089357;23;20488;-52
2023/07/10 10:33:00;;;;;;;3.03;2.35;;;;;;;;;;6087842;23;20023;-59
2023/07/10 10:35:35;;;;;;;3.72;2.38;;;;;;;;;;6087118;23;20061;-64
2023/07/10 10:38:30;;;;;;;3.42;2.75;;;;;;;;;;6088090;23;20089;-63
2023/07/10 10:41:26;;;;;;;4.00;2.55;;;;;;;;;;6086696;23;20378;-61
2023/07/10 10:44:06;;;;;;;3.50;2.30;;;;;;;;;;6071560;23;20026;-63
2023/07/10 10:46:34;;;;;;;3.38;2.72;;;;;;;;;;6085625;23;20573;-61
2023/07/10 10:49:34;;;;;;;3.53;2.50;;;;;;;;;;6087629;23;20050;-63
2023/07/10 10:52:01;;;;;;;6.25;3.20;;;;;;;;;;6088462;23;20569;-48
2023/07/10 10:54:42;;;;;;;3.00;2.20;;;;;;;;;;6085349;23;20057;-50
2023/07/10 10:57:12;;;;;;;3.25;2.42;;;;;;;;;;6085359;23;20434;-49
2023/07/10 10:59:51;;;;;;;4.00;2.58;;;;;;;;;;6086559;23;20030;-47
2023/07/10 11:02:32;;;;;;;3.10;2.65;;;;;;;;;;6086925;23;20078;-60
2023/07/10 11:05:11;;;;;;;6.07;2.70;;;;;;;;;;6086361;23;20101;-51
2023/07/10 11:07:40;;;;;;;4.45;2.53;;;;;;;;;;6085602;23;20026;-52
2023/07/10 11:10:18;;;;;;;3.47;2.60;;;;;;;;;;6086820;23;20032;-50
2023/07/10 11:12:45;;;;;;;2.95;2.47;;;;;;;;;;6087045;23;20054;-49
2023/07/10 11:15:15;;;;;;;3.28;2.40;;;;;;;;;;6087761;23;20026;-52
2023/07/10 11:17:51;;;;;;;4.07;2.50;;;;;;;;;;6084697;23;20030;-50
2023/07/10 11:20:18;;;;;;;7.57;2.42;;;;;;;;;;6088123;23;20075;-63
2023/07/10 11:23:01;;;;;;;3.72;2.38;;;;;;;;;;6085029;23;20097;-63
2023/07/10 11:25:33;;;;;;;2.75;2.20;;;;;;;;;;6085598;23;20030;-63
2023/07/10 11:28:21;;;;;;;5.70;2.13;;;;;;;;;;6086256;23;20085;-63
2023/07/10 11:31:13;;;;;;;4.95;2.03;;;;;;;;;;6086632;23;20031;-60
2023/07/10 11:33:42;;;;;;;4.00;2.17;;;;;;;;;;6086191;23;20030;-54
2023/07/10 11:36:24;;;;;;;2.72;1.83;;;;;;;;;;6087035;23;20027;-57
2023/07/10 11:38:55;;;;;;;2.72;1.90;;;;;;;;;;6086862;23;20034;-57
2023/07/10 11:41:29;;;;;;;;;;;;;;;;;;6086400;23;20093;-57
2023/07/10 11:44:15;;;;;;;3.83;2.47;;;;;;;;;;6086866;23;20357;-57
2023/07/10 11:47:01;;;;;;;3.67;2.25;;;;;;;;;;6085327;23;20030;-57
2023/07/10 11:49:35;;;;;;;3.45;2.30;;;;;;;;;;6086055;23;20490;-62
2023/07/10 11:52:15;;;;;;;4.93;2.70;;;;;;;;;;6087295;23;20034;-63
2023/07/10 11:55:02;;;;;;;7.22;2.30;;;;;;;;;;6087083;23;20090;-63
2023/07/10 11:57:37;;;;;;;3.20;2.53;;;;;;;;;;6085067;23;20022;-55
2023/07/10 12:00:13;;;;;;;5.13;2.80;;;;;;;;;;6086821;23;20029;-62
2023/07/10 12:02:44;;;;;;;5.85;2.75;;;;;;;;;;6083960;23;20029;-52
2023/07/10 12:05:17;;;;;;;3.85;2.88;;;;;;;;;;6084359;23;20030;-54
2023/07/10 12:07:51;;;;;;;4.55;2.90;;;;;;;;;;6086429;23;20026;-55
2023/07/10 12:10:35;;;;;;;5.72;2.47;;;;;;;;;;6085808;23;20030;-53
2023/07/10 12:13:04;;;;;;;5.53;2.80;;;;;;;;;;6087839;23;20094;-53
2023/07/10 12:15:40;;;;;;;6.47;2.70;;;;;;;;;;6086866;23;20022;-55
2023/07/10 12:18:08;;;;;;;6.05;3.08;;;;;;;;;;6087095;23;20450;-52
2023/07/10 12:20:36;;;;;;;4.03;2.70;;;;;;;;;;6088038;23;20026;-54
2023/07/10 12:23:13;;;;;;;5.00;2.97;;;;;;;;;;6087372;23;20023;-54
2023/07/10 12:26:07;;;;;;;5.10;2.90;;;;;;;;;;6086226;23;20031;-63
2023/07/10 12:28:40;;;;;;;5.13;3.03;;;;;;;;;;6086983;23;20561;-62
2023/07/10 12:31:10;;;;;;;4.75;2.78;;;;;;;;;;6086853;23;20033;-62
2023/07/10 12:33:40;;;;;;;5.95;3.20;;;;;;;;;;6084929;23;20029;-62
2023/07/10 12:36:20;;;;;;;7.65;2.85;;;;;;;;;;6087903;23;20031;-62
2023/07/10 12:38:48;;;;;;;5.15;2.78;;;;;;;;;;6086289;23;20093;-62
2023/07/10 12:41:22;;;;;;;5.55;2.92;;;;;;;;;;6085600;23;20026;-62
2023/07/10 12:43:53;;;;;;;4.82;2.55;;;;;;;;;;6086292;23;20030;-57
2023/07/10 12:46:29;;;;;;;6.60;2.90;;;;;;;;;;6110017;23;20027;-55
2023/07/10 12:48:58;;;;;;;4.25;2.70;;;;;;;;;;6089149;23;20085;-57
2023/07/10 12:51:33;;;;;;;5.30;2.72;;;;;;;;;;6087641;23;20026;-55
2023/07/10 12:54:02;;;;;;;3.80;2.72;;;;;;;;;;6085355;23;20026;-49
2023/07/10 12:56:33;;;;;;;5.18;2.85;;;;;;;;;;6087584;23;20023;-59
2023/07/10 12:59:13;;;;;;;6.50;2.72;;;;;;;;;;6085702;23;20287;-62
2023/07/10 13:01:46;;;;;;;4.43;2.92;;;;;;;;;;6087393;23;20026;-62
2023/07/10 13:04:24;;;;;;;3.38;2.72;;;;;;;;;;6087088;23;20018;-62
2023/07/10 13:07:00;;;;;;;7.97;3.17;;;;;;;;;;6088686;23;20041;-61
2023/07/10 13:10:01;;;;;;;3.72;2.83;;;;;;;;;;6089672;23;20490;-62
2023/07/10 13:12:36;;;;;;;9.13;3.10;;;;;;;;;;6090856;23;20038;-59
2023/07/10 13:15:12;;;;;;;4.00;3.05;;;;;;;;;;6088673;23;20022;-58
2023/07/10 13:17:44;;;;;;;6.00;3.22;;;;;;;;;;6087797;23;20026;-59
2023/07/10 13:20:17;;;;;;;;;;;;;;;;;;6088851;23;20081;-59
2023/07/10 13:22:44;;;;;;;6.25;3.28;;;;;;;;;;6087113;23;20210;-49
2023/07/10 13:25:12;;;;;;;;;;;;;;;;;;6089128;23;20498;-55
2023/07/10 13:27:45;;;;;;;4.40;3.47;;;;;;;;;;6087922;23;19921;-59
2023/07/10 13:30:20;;;;;;;6.35;3.00;;;;;;;;;;6089504;23;20081;-59
2023/07/10 13:32:48;;;;;;;5.13;3.40;;;;;;;;;;6085899;23;20031;-59
2023/07/10 13:35:16;;;;;;;6.95;3.50;;;;;;;;;;6086811;23;20599;-59
2023/07/10 13:37:49;;;;;;;6.65;3.60;;;;;;;;;;6086192;23;20023;-59
2023/07/10 13:40:21;;;;;;;8.18;4.20;;;;;;;;;;6087612;23;20355;-59
2023/07/10 13:42:49;;;;;;;5.10;3.20;;;;;;;;;;6085558;23;20497;-55
2023/07/10 13:45:22;;;;;;;4.25;3.33;;;;;;;;;;6084801;23;20030;-51
2023/07/10 13:47:50;;;;;;;6.32;3.60;;;;;;;;;;6087317;23;20192;-54
2023/07/10 13:50:17;;;;;;;6.50;4.07;;;;;;;;;;6089329;23;20022;-56
2023/07/10 13:52:51;;;;;;;6.65;4.25;;;;;;;;;;6088602;23;20120;-54
2023/07/10 13:55:48;;;;;;;7.80;4.05;;;;;;;;;;6087871;23;20105;-58
2023/07/10 13:58:23;;;;;;;6.93;3.60;;;;;;;;;;6087820;23;20545;-58
2023/07/10 14:00:56;;;;;;;7.38;4.15;;;;;;;;;;6088303;23;20298;-57
2023/07/10 14:03:25;;;;;;;9.10;4.45;;;;;;;;;;6088549;23;20085;-53
2023/07/10 14:05:52;;;;;;;5.32;4.18;;;;;;;;;;6088308;23;20085;-56
2023/07/10 14:08:27;;;;;;;6.95;4.45;;;;;;;;;;6086346;23;20034;-55
2023/07/10 14:11:01;;;;;;;5.55;3.92;;;;;;;;;;6087951;23;20023;-55
2023/07/10 14:13:34;;;;;;;6.82;4.25;;;;;;;;;;6086887;23;20023;-57
2023/07/10 14:16:03;;;;;;;5.25;4.68;;;;;;;;;;6087001;23;20026;-53
2023/07/10 14:18:37;;;;;;;6.68;3.92;;;;;;;;;;6087843;23;20022;-55
2023/07/10 14:21:05;;;;;;;8.18;4.20;;;;;;;;;;6088998;23;20061;-66
2023/07/10 14:23:58;;;;;;;8.60;4.47;;;;;;;;;;6087556;23;20026;-59
2023/07/10 14:26:52;;;;;;;7.20;4.75;;;;;;;;;;6088562;23;20030;-59
2023/07/10 14:29:47;;;;;;;8.85;4.90;;;;;;;;;;6086164;23;20386;-59
2023/07/10 14:32:34;;;;;;;10.38;5.43;;;;;;;;;;6087007;23;20086;-59
2023/07/10 14:35:27;;;;;;;9.30;4.53;;;;;;;;;;6086324;23;20605;-59
2023/07/10 14:38:21;;;;;;;6.72;5.15;;;;;;;;;;6085567;23;20027;-61
2023/07/10 14:41:23;;;;;;;7.93;4.88;;;;;;;;;;6088449;23;20097;-61
2023/07/10 14:44:10;;;;;;;16.98;5.70;;;;;;;;;;6086250;23;20049;-61
2023/07/10 14:47:03;;;;;;;6.65;4.88;;;;;;;;;;6086736;23;20512;-61
2023/07/10 14:49:51;;;;;;;6.68;4.80;;;;;;;;;;6087775;23;20125;-57
2023/07/10 14:52:44;;;;;;;8.73;5.22;;;;;;;;;;6084505;23;20094;-66
2023/07/10 14:55:32;;;;;;;6.63;5.35;;;;;;;;;;6087406;23;20030;-66
2023/07/10 14:58:33;;;;;;;12.98;5.68;;;;;;;;;;6086163;23;20030;-68
2023/07/10 15:01:20;;;;;;;6.82;5.25;;;;;;;;;;6087811;23;20045;-67
2023/07/10 15:04:14;;;;;;;8.55;5.10;;;;;;;;;;6086106;23;20133;-66
2023/07/10 15:07:02;;;;;;;8.32;5.25;;;;;;;;;;6085597;23;20578;-59
2023/07/10 15:09:59;;;;;;;9.98;5.30;;;;;;;;;;6087203;23;20027;-59
2023/07/10 15:12:53;;;;;;;8.32;5.60;;;;;;;;;;6082132;23;20085;-59
2023/07/10 15:15:48;;;;;;;14.05;5.95;;;;;;;;;;6086036;23;20466;-59
2023/07/10 15:18:35;;;;;;;10.27;5.90;;;;;;;;;;6087764;23;20022;-67
2023/07/10 15:21:29;;;;;;;8.20;5.68;;;;;;;;;;6086184;23;20030;-52
2023/07/10 15:24:24;;;;;;;10.63;5.90;;;;;;;;;;6087949;23;20025;-52
2023/07/10 15:27:17;;;;;;;7.63;5.90;;;;;;;;;;6087846;23;20030;-55